Time;durP1;ratioP1;P1;durP2;ratioP2;P2;SDS_P1;SDS_P2;PMS_P1;PMS_P2;Temp;Humidity;BMP_temperature;BMP_pressure;BME280_temperature;BME280_humidity;BME280_pressure;Samples;Min_cycle;Max_cycle;Signal;HPM_P1;HPM_P2
2022/02/27 00:00:50;;;;;;;3.25;2.88;;;6.90;99.90;;;;;;5051499;28;20725;-68
2022/02/27 00:03:18;;;;;;;4.78;3.65;;;6.90;99.90;;;;;;5052159;28;20188;-68
2022/02/27 00:05:46;;;;;;;3.28;2.97;;;6.90;99.90;;;;;;5049886;28;20751;-67
2022/02/27 00:08:14;;;;;;;3.85;3.45;;;6.90;99.90;;;;;;5054666;28;20646;-67
2022/02/27 00:10:43;;;;;;;7.30;3.70;;;6.90;99.90;;;;;;5051689;28;20225;-67
2022/02/27 00:13:11;;;;;;;6.55;4.03;;;6.90;99.90;;;;;;5051808;28;20231;-68
2022/02/27 00:15:41;;;;;;;5.93;3.00;;;6.80;99.90;;;;;;5044667;28;20274;-67
2022/02/27 00:18:09;;;;;;;4.75;3.47;;;6.80;99.90;;;;;;5050580;28;20192;-68
2022/02/27 00:20:39;;;;;;;4.55;3.90;;;6.80;99.90;;;;;;5050724;28;20316;-67
2022/02/27 00:23:07;;;;;;;3.40;3.10;;;6.80;99.90;;;;;;5051714;28;20197;-68
2022/02/27 00:25:35;;;;;;;4.00;3.33;;;6.80;99.90;;;;;;5051184;28;20586;-66
2022/02/27 00:28:03;;;;;;;8.55;4.28;;;6.80;99.90;;;;;;5051007;28;20188;-68
2022/02/27 00:30:31;;;;;;;4.28;3.45;;;6.80;99.90;;;;;;5050789;28;20621;-68
2022/02/27 00:33:01;;;;;;;5.10;3.47;;;6.80;99.90;;;;;;5035754;28;20219;-69
2022/02/27 00:35:29;;;;;;;5.63;3.90;;;6.80;99.90;;;;;;5056056;28;20239;-68
2022/02/27 00:37:57;;;;;;;5.50;3.75;;;6.80;99.90;;;;;;5051603;28;20188;-66
2022/02/27 00:40:26;;;;;;;5.38;4.32;;;6.80;99.90;;;;;;5034221;28;20221;-68
2022/02/27 00:42:54;;;;;;;5.90;3.25;;;6.80;99.90;;;;;;5049187;28;20195;-69
2022/02/27 00:45:22;;;;;;;3.97;3.40;;;6.80;99.90;;;;;;5049316;28;20250;-68
2022/02/27 00:47:52;;;;;;;5.32;3.83;;;6.80;99.90;;;;;;5051319;28;20189;-68
2022/02/27 00:50:23;;;;;;;5.20;3.92;;;6.80;99.90;;;;;;5050183;28;20224;-68
2022/02/27 00:52:51;;;;;;;4.32;3.95;;;6.70;99.90;;;;;;5042631;28;20242;-65
2022/02/27 00:55:19;;;;;;;5.50;3.80;;;6.70;99.90;;;;;;5049290;28;20220;-68
2022/02/27 00:57:48;;;;;;;6.30;3.10;;;6.70;99.90;;;;;;5050332;28;20238;-69
2022/02/27 01:00:16;;;;;;;4.22;3.80;;;6.70;99.90;;;;;;5050059;28;20200;-67
2022/02/27 01:02:44;;;;;;;4.07;2.72;;;6.70;99.90;;;;;;5051295;28;20192;-69
2022/02/27 01:05:13;;;;;;;4.85;3.40;;;6.70;99.90;;;;;;5050126;28;20193;-66
2022/02/27 01:07:44;;;;;;;10.32;3.70;;;6.70;99.90;;;;;;5050154;28;20246;-68
2022/02/27 01:10:13;;;;;;;7.60;4.05;;;6.70;99.90;;;;;;5050274;28;20192;-71
2022/02/27 01:12:41;;;;;;;6.45;4.13;;;6.70;99.90;;;;;;5049273;28;20246;-68
2022/02/27 01:15:10;;;;;;;6.40;3.70;;;6.70;99.90;;;;;;5050684;28;20213;-68
2022/02/27 01:17:39;;;;;;;4.30;3.90;;;6.70;99.90;;;;;;5050106;28;20223;-68
2022/02/27 01:20:08;;;;;;;5.65;3.40;;;6.70;99.90;;;;;;5050351;28;20192;-70
2022/02/27 01:22:36;;;;;;;4.15;3.75;;;6.70;99.90;;;;;;5050070;28;20220;-69
2022/02/27 01:25:08;;;;;;;4.68;3.33;;;6.70;99.90;;;;;;5050571;28;20198;-70
2022/02/27 01:27:38;;;;;;;4.50;4.05;;;6.70;99.90;;;;;;5044261;28;20633;-70
2022/02/27 01:30:09;;;;;;;6.32;3.55;;;6.70;99.90;;;;;;5030373;28;20251;-67
2022/02/27 01:32:37;;;;;;;7.38;4.13;;;6.70;99.90;;;;;;5047794;28;20212;-66
2022/02/27 01:35:07;;;;;;;4.28;3.60;;;6.70;99.90;;;;;;5055726;28;20236;-69
2022/02/27 01:37:36;;;;;;;6.25;3.80;;;6.70;99.90;;;;;;5030880;28;20690;-69
2022/02/27 01:40:07;;;;;;;4.00;3.13;;;6.70;99.90;;;;;;5035069;28;20601;-68
2022/02/27 01:42:38;;;;;;;4.20;3.30;;;6.70;99.90;;;;;;5029759;28;20216;-68
2022/02/27 01:45:07;;;;;;;5.72;3.80;;;6.70;99.90;;;;;;5029274;28;20193;-67
2022/02/27 01:47:35;;;;;;;5.25;3.55;;;6.70;99.90;;;;;;5044905;28;20221;-68
2022/02/27 01:50:06;;;;;;;4.22;3.53;;;6.70;99.90;;;;;;5029008;28;20268;-68
2022/02/27 01:52:34;;;;;;;6.38;3.90;;;6.70;99.90;;;;;;5049286;28;20269;-70
2022/02/27 01:55:04;;;;;;;7.70;4.10;;;6.70;99.90;;;;;;5048813;28;20235;-67
2022/02/27 01:57:33;;;;;;;4.38;3.50;;;6.70;99.90;;;;;;5048453;28;20216;-66
2022/02/27 02:00:06;;;;;;;4.68;4.00;;;6.70;99.90;;;;;;5042656;28;20285;-67
2022/02/27 02:02:40;;;;;;;4.68;3.47;;;6.70;99.90;;;;;;5049846;28;20562;-67
2022/02/27 02:05:09;;;;;;;4.05;3.03;;;6.80;99.90;;;;;;5048578;28;20630;-70
2022/02/27 02:07:40;;;;;;;4.75;4.10;;;6.70;99.90;;;;;;5048627;28;20221;-68
2022/02/27 02:10:09;;;;;;;4.88;3.33;;;6.70;99.90;;;;;;5048242;28;20193;-67
2022/02/27 02:12:43;;;;;;;4.45;3.15;;;6.70;99.90;;;;;;5043785;28;20258;-67
2022/02/27 02:15:12;;;;;;;4.40;3.75;;;6.70;99.90;;;;;;5050506;28;20263;-69
2022/02/27 02:17:40;;;;;;;6.13;3.90;;;6.70;99.90;;;;;;5039521;28;20304;-69
2022/02/27 02:20:15;;;;;;;4.57;3.22;;;6.70;99.90;;;;;;5052346;28;20274;-68
2022/02/27 02:22:52;;;;;;;3.40;3.10;;;6.70;99.90;;;;;;5052436;28;20299;-67
2022/02/27 02:25:20;;;;;;;3.90;3.50;;;6.70;99.90;;;;;;5052144;28;20284;-68
2022/02/27 02:27:51;;;;;;;6.60;3.67;;;6.70;99.90;;;;;;5051660;28;20266;-66
2022/02/27 02:30:19;;;;;;;4.68;2.38;;;6.70;99.90;;;;;;5051807;28;20194;-70
2022/02/27 02:32:51;;;;;;;4.60;3.33;;;6.70;99.90;;;;;;5052537;28;20192;-68
2022/02/27 02:35:24;;;;;;;4.78;3.63;;;6.70;99.90;;;;;;5044844;28;20985;-68
2022/02/27 02:37:53;;;;;;;5.35;3.50;;;6.70;99.90;;;;;;5053765;28;20219;-69
2022/02/27 02:40:23;;;;;;;4.07;3.00;;;6.70;99.90;;;;;;5053476;28;20589;-66
2022/02/27 02:42:52;;;;;;;3.85;3.45;;;6.70;99.90;;;;;;5052329;28;20193;-68
2022/02/27 02:45:20;;;;;;;5.70;3.03;;;6.70;99.90;;;;;;5050975;28;20197;-70
2022/02/27 02:47:51;;;;;;;4.18;3.65;;;6.70;99.90;;;;;;5052276;28;20192;-70
2022/02/27 02:50:23;;;;;;;2.97;2.67;;;6.70;99.90;;;;;;5051162;28;20200;-67
2022/02/27 02:52:52;;;;;;;2.75;2.55;;;6.70;99.90;;;;;;5052378;28;20208;-68
2022/02/27 02:55:20;;;;;;;4.32;2.70;;;6.70;99.90;;;;;;5051330;28;20216;-67
2022/02/27 02:57:48;;;;;;;8.43;3.10;;;6.70;99.90;;;;;;5052928;28;20238;-66
2022/02/27 03:00:17;;;;;;;6.13;3.85;;;6.70;99.90;;;;;;5052843;28;20195;-67
2022/02/27 03:02:45;;;;;;;4.03;3.00;;;6.70;99.90;;;;;;5053008;28;20189;-68
2022/02/27 03:05:13;;;;;;;5.22;3.42;;;6.70;99.90;;;;;;5052085;28;20197;-71
2022/02/27 03:07:43;;;;;;;5.55;3.38;;;6.60;99.90;;;;;;5053009;28;20204;-66
2022/02/27 03:10:12;;;;;;;5.22;3.10;;;6.60;99.90;;;;;;5053032;28;20200;-68
2022/02/27 03:12:40;;;;;;;4.47;3.28;;;6.60;99.90;;;;;;5052676;28;20224;-69
2022/02/27 03:15:09;;;;;;;2.72;2.50;;;6.60;99.90;;;;;;5052268;28;20278;-69
2022/02/27 03:17:37;;;;;;;3.55;3.25;;;6.60;99.90;;;;;;5052163;28;20231;-68
2022/02/27 03:20:07;;;;;;;3.42;2.80;;;6.60;99.90;;;;;;5052374;28;20276;-69
2022/02/27 03:22:35;;;;;;;6.05;2.67;;;6.60;99.90;;;;;;5052319;28;20216;-69
2022/02/27 03:25:05;;;;;;;3.90;3.35;;;6.60;99.90;;;;;;5052911;28;20603;-69
2022/02/27 03:27:33;;;;;;;5.47;3.58;;;6.60;99.90;;;;;;5051207;28;20266;-66
2022/02/27 03:30:01;;;;;;;3.67;2.70;;;6.60;99.90;;;;;;5053020;28;20207;-68
2022/02/27 03:32:30;;;;;;;4.13;2.70;;;6.60;99.90;;;;;;5052326;28;20692;-67
2022/02/27 03:34:58;;;;;;;4.13;3.08;;;6.60;99.90;;;;;;5057596;28;20674;-67
2022/02/27 03:37:26;;;;;;;4.05;2.65;;;6.60;99.90;;;;;;5052204;28;20209;-67
2022/02/27 03:39:54;;;;;;;5.70;3.45;;;6.50;99.90;;;;;;5052749;28;20192;-69
2022/02/27 03:42:23;;;;;;;5.30;3.03;;;6.60;99.90;;;;;;5051970;28;20282;-68
2022/02/27 03:44:51;;;;;;;5.28;2.78;;;6.60;99.90;;;;;;5051839;28;20193;-67
2022/02/27 03:47:19;;;;;;;4.65;3.38;;;6.50;99.90;;;;;;5052126;28;20240;-67
2022/02/27 03:49:47;;;;;;;3.95;3.00;;;6.60;99.90;;;;;;5052274;28;20193;-68
2022/02/27 03:52:17;;;;;;;3.33;3.10;;;6.50;99.90;;;;;;5051873;28;20293;-68
2022/02/27 03:54:45;;;;;;;3.13;2.63;;;6.50;99.90;;;;;;5052483;28;20234;-66
2022/02/27 03:57:13;;;;;;;3.38;2.65;;;6.50;99.90;;;;;;5052327;28;20216;-67
2022/02/27 03:59:43;;;;;;;3.28;2.72;;;6.50;99.90;;;;;;5051985;28;20208;-68
2022/02/27 04:02:12;;;;;;;4.38;2.85;;;6.50;99.90;;;;;;5051162;28;20231;-68
2022/02/27 04:04:40;;;;;;;4.95;2.90;;;6.50;99.90;;;;;;5049996;28;20290;-68
2022/02/27 04:07:08;;;;;;;5.28;3.60;;;6.50;99.90;;;;;;5052066;28;20266;-69
2022/02/27 04:09:36;;;;;;;5.13;3.40;;;6.50;99.90;;;;;;5048967;28;20976;-69
2022/02/27 04:12:05;;;;;;;3.13;2.83;;;6.50;99.90;;;;;;5051688;28;20313;-68
2022/02/27 04:14:33;;;;;;;4.50;3.00;;;6.50;99.90;;;;;;5050134;28;20188;-67
2022/02/27 04:17:03;;;;;;;5.05;3.22;;;6.50;99.90;;;;;;5053532;28;20228;-68
2022/02/27 04:19:31;;;;;;;5.38;3.38;;;6.50;99.90;;;;;;5051352;28;20705;-68
2022/02/27 04:21:59;;;;;;;10.10;3.40;;;6.50;99.90;;;;;;5050149;28;20228;-67
2022/02/27 04:24:27;;;;;;;4.45;2.70;;;6.40;99.90;;;;;;5051485;28;20196;-68
2022/02/27 04:26:55;;;;;;;4.25;3.35;;;6.40;99.90;;;;;;5051198;28;20266;-66
2022/02/27 04:29:26;;;;;;;3.92;2.85;;;6.50;99.90;;;;;;5050976;28;20335;-67
2022/02/27 04:31:54;;;;;;;4.43;3.22;;;6.40;99.90;;;;;;5050294;28;20694;-68
2022/02/27 04:34:23;;;;;;;2.67;2.42;;;6.40;99.90;;;;;;5056544;28;20191;-67
2022/02/27 04:36:51;;;;;;;4.40;2.85;;;6.40;99.90;;;;;;5050822;28;20697;-67
2022/02/27 04:39:19;;;;;;;2.78;2.55;;;6.40;99.90;;;;;;5051423;28;20235;-68
2022/02/27 04:41:47;;;;;;;4.57;2.90;;;6.50;99.90;;;;;;5051040;28;20231;-68
2022/02/27 04:44:16;;;;;;;4.32;3.22;;;6.40;99.90;;;;;;5050767;28;20192;-67
2022/02/27 04:46:44;;;;;;;3.90;2.70;;;6.40;99.90;;;;;;5051126;28;20227;-67
2022/02/27 04:49:12;;;;;;;3.60;2.88;;;6.40;99.90;;;;;;5050960;28;20211;-67
2022/02/27 04:51:41;;;;;;;4.18;2.70;;;6.40;99.90;;;;;;5050265;28;20319;-68
2022/02/27 04:54:09;;;;;;;4.10;2.67;;;6.40;99.90;;;;;;5051395;28;20189;-68
2022/02/27 04:56:37;;;;;;;4.00;2.95;;;6.40;99.90;;;;;;5050705;28;20224;-68
2022/02/27 04:59:06;;;;;;;3.90;2.80;;;6.40;99.90;;;;;;5050738;28;20258;-69
2022/02/27 05:01:36;;;;;;;7.50;3.15;;;6.40;99.90;;;;;;5050663;28;20224;-68
2022/02/27 05:04:05;;;;;;;2.55;2.35;;;6.40;99.90;;;;;;5051007;28;20220;-67
2022/02/27 05:06:34;;;;;;;3.17;2.25;;;6.40;99.90;;;;;;5050048;28;20233;-68
2022/02/27 05:09:03;;;;;;;3.95;2.60;;;6.40;99.90;;;;;;5050984;28;20192;-68
2022/02/27 05:11:31;;;;;;;5.95;2.40;;;6.40;99.90;;;;;;5050372;28;20232;-67
2022/02/27 05:13:59;;;;;;;4.53;2.70;;;6.40;99.90;;;;;;5049676;28;20639;-67
2022/02/27 05:16:29;;;;;;;4.88;2.40;;;6.40;99.90;;;;;;5050504;28;20266;-68
2022/02/27 05:18:57;;;;;;;3.08;2.60;;;6.40;99.90;;;;;;5050481;28;20680;-68
2022/02/27 05:21:26;;;;;;;4.88;2.50;;;6.40;99.90;;;;;;5049812;28;20243;-68
2022/02/27 05:23:54;;;;;;;2.95;2.35;;;6.40;99.90;;;;;;5035086;28;20238;-68
2022/02/27 05:26:23;;;;;;;4.85;2.70;;;6.40;99.90;;;;;;5050244;28;20208;-67
2022/02/27 05:28:51;;;;;;;3.05;2.72;;;6.40;99.90;;;;;;5051187;28;20192;-68
2022/02/27 05:31:19;;;;;;;4.28;2.78;;;6.40;99.90;;;;;;5049799;28;20254;-68
2022/02/27 05:33:47;;;;;;;3.53;2.85;;;6.40;99.90;;;;;;5051874;28;20646;-69
2022/02/27 05:36:15;;;;;;;3.75;2.53;;;6.40;99.90;;;;;;5052352;28;20239;-68
2022/02/27 05:38:46;;;;;;;4.15;2.60;;;6.40;99.90;;;;;;5050277;28;20196;-69
2022/02/27 05:41:14;;;;;;;4.60;2.80;;;6.40;99.90;;;;;;5050198;28;20686;-68
2022/02/27 05:43:44;;;;;;;3.70;2.90;;;6.40;99.90;;;;;;5053213;28;20250;-68
2022/02/27 05:46:12;;;;;;;4.82;2.88;;;6.30;99.90;;;;;;5053999;28;20209;-68
2022/02/27 05:48:40;;;;;;;3.33;2.20;;;6.30;99.90;;;;;;5054562;28;20204;-68
2022/02/27 05:51:08;;;;;;;5.05;2.83;;;6.30;99.90;;;;;;5053439;28;20702;-66
2022/02/27 05:53:37;;;;;;;6.75;3.65;;;6.30;99.90;;;;;;5054410;28;20589;-68
2022/02/27 05:56:05;;;;;;;3.55;2.60;;;6.30;99.90;;;;;;5054049;28;20220;-67
2022/02/27 05:58:34;;;;;;;5.43;2.33;;;6.30;99.90;;;;;;5054376;28;20193;-68
2022/02/27 06:01:04;;;;;;;4.22;2.60;;;6.30;99.90;;;;;;5052350;28;20598;-67
2022/02/27 06:03:32;;;;;;;3.83;2.78;;;6.30;99.90;;;;;;5054327;28;20224;-67
2022/02/27 06:06:00;;;;;;;2.90;2.28;;;6.30;99.90;;;;;;5052907;28;20223;-67
2022/02/27 06:08:28;;;;;;;3.78;2.40;;;6.30;99.90;;;;;;5053943;28;20639;-67
2022/02/27 06:10:56;;;;;;;3.83;2.55;;;6.30;99.90;;;;;;5053948;28;20216;-66
2022/02/27 06:13:24;;;;;;;2.85;2.10;;;6.30;99.90;;;;;;5053314;28;20822;-68
2022/02/27 06:15:53;;;;;;;5.78;2.80;;;6.20;99.90;;;;;;5053412;28;20509;-67
2022/02/27 06:18:22;;;;;;;3.05;2.30;;;6.20;99.90;;;;;;5053860;28;20698;-67
2022/02/27 06:20:50;;;;;;;5.10;2.58;;;6.20;99.90;;;;;;5053023;28;20224;-67
2022/02/27 06:23:18;;;;;;;4.47;2.33;;;6.20;99.90;;;;;;5056670;28;20193;-67
2022/02/27 06:25:46;;;;;;;5.30;3.08;;;6.20;99.90;;;;;;5032732;28;20930;-69
2022/02/27 06:28:14;;;;;;;5.70;2.65;;;6.20;99.90;;;;;;5049866;28;20185;-66
2022/02/27 06:30:42;;;;;;;3.38;2.83;;;6.20;99.90;;;;;;5052805;28;20311;-68
2022/02/27 06:33:10;;;;;;;6.18;2.28;;;6.20;99.90;;;;;;5053727;28;20201;-66
2022/02/27 06:35:40;;;;;;;3.45;2.90;;;6.20;99.90;;;;;;5058722;28;20670;-68
2022/02/27 06:38:08;;;;;;;2.15;2.03;;;6.20;99.90;;;;;;5053829;28;20216;-67
2022/02/27 06:40:36;;;;;;;4.00;2.33;;;6.10;99.90;;;;;;5052951;28;20581;-66
2022/02/27 06:43:06;;;;;;;2.58;2.13;;;6.10;99.90;;;;;;5053006;28;20212;-66
2022/02/27 06:45:35;;;;;;;4.68;2.50;;;6.10;99.90;;;;;;5052336;28;20254;-67
2022/02/27 06:48:03;;;;;;;4.60;2.75;;;6.10;99.90;;;;;;5041593;28;20741;-68
2022/02/27 06:50:32;;;;;;;3.95;2.60;;;6.10;99.90;;;;;;5052773;28;20236;-68
2022/02/27 06:53:01;;;;;;;3.72;2.88;;;6.10;99.90;;;;;;5053818;28;20185;-66
2022/02/27 06:55:29;;;;;;;3.20;2.60;;;6.10;99.90;;;;;;5038376;28;20213;-67
2022/02/27 06:57:57;;;;;;;2.00;1.90;;;6.10;99.90;;;;;;5052556;28;20204;-67
2022/02/27 07:00:25;;;;;;;3.20;2.90;;;6.10;99.90;;;;;;5052617;28;20296;-67
2022/02/27 07:02:54;;;;;;;4.43;2.45;;;6.10;99.90;;;;;;5045864;28;20862;-67
2022/02/27 07:05:29;;;;;;;4.90;2.97;;;6.10;99.90;;;;;;5044805;28;20295;-69
2022/02/27 07:07:57;;;;;;;3.83;2.60;;;6.10;99.90;;;;;;5053042;28;20642;-68
2022/02/27 07:10:26;;;;;;;4.03;3.10;;;6.10;99.90;;;;;;5052272;28;20248;-68
2022/02/27 07:12:55;;;;;;;4.97;2.85;;;6.00;99.90;;;;;;5037665;28;20362;-67
2022/02/27 07:15:24;;;;;;;3.55;2.10;;;6.00;99.90;;;;;;5052467;28;20200;-68
2022/02/27 07:17:52;;;;;;;3.33;3.03;;;6.10;99.90;;;;;;5052730;28;20216;-67
2022/02/27 07:20:20;;;;;;;4.78;2.78;;;6.10;99.90;;;;;;5051830;28;20196;-68
2022/02/27 07:22:48;;;;;;;4.43;2.63;;;6.00;99.90;;;;;;5052471;28;20192;-67
2022/02/27 07:25:18;;;;;;;3.75;3.00;;;6.00;99.90;;;;;;5051978;28;20196;-68
2022/02/27 07:27:47;;;;;;;3.15;2.22;;;6.00;99.90;;;;;;5051783;28;20200;-68
2022/02/27 07:30:16;;;;;;;2.65;2.30;;;6.10;99.90;;;;;;5052737;28;20200;-67
2022/02/27 07:32:44;;;;;;;4.63;2.30;;;6.00;99.90;;;;;;5052365;28;20633;-68
2022/02/27 07:35:12;;;;;;;3.08;2.10;;;6.00;99.90;;;;;;5055527;28;20287;-68
2022/02/27 07:37:40;;;;;;;3.50;2.47;;;6.10;99.90;;;;;;5051749;28;20220;-68
2022/02/27 07:40:10;;;;;;;2.85;2.63;;;6.00;99.90;;;;;;5052818;28;20223;-68
2022/02/27 07:42:38;;;;;;;5.63;2.65;;;6.00;99.90;;;;;;5052010;28;20251;-67
2022/02/27 07:45:09;;;;;;;3.28;2.65;;;6.00;99.90;;;;;;5051922;28;20254;-68
2022/02/27 07:47:38;;;;;;;2.50;1.98;;;6.00;99.90;;;;;;5049480;28;20212;-66
2022/02/27 07:50:06;;;;;;;3.80;2.75;;;6.00;99.90;;;;;;5052062;28;20192;-66
2022/02/27 07:52:34;;;;;;;2.95;2.20;;;6.00;99.90;;;;;;5052055;28;20278;-67
2022/02/27 07:55:03;;;;;;;3.78;2.75;;;6.00;99.90;;;;;;5052242;28;20216;-67
2022/02/27 07:57:31;;;;;;;3.60;2.38;;;6.00;99.90;;;;;;5052066;28;20224;-67
2022/02/27 07:59:59;;;;;;;2.92;2.30;;;6.00;99.90;;;;;;5052118;28;20192;-67
2022/02/27 08:02:40;;;;;;;7.03;2.92;;;6.00;99.90;;;;;;5051509;28;20216;-67
2022/02/27 08:05:09;;;;;;;6.53;2.97;;;6.00;99.90;;;;;;5050436;28;20219;-67
2022/02/27 08:07:37;;;;;;;6.80;2.92;;;6.00;99.90;;;;;;5050789;28;20285;-68
2022/02/27 08:10:06;;;;;;;4.78;2.78;;;6.00;99.90;;;;;;5051494;28;20605;-67
2022/02/27 08:12:35;;;;;;;5.82;2.95;;;6.10;99.90;;;;;;5051702;28;20220;-67
2022/02/27 08:15:04;;;;;;;3.05;2.42;;;6.00;99.90;;;;;;5050526;28;20196;-69
2022/02/27 08:17:33;;;;;;;5.82;2.47;;;6.10;99.90;;;;;;5051206;28;20228;-67
2022/02/27 08:20:03;;;;;;;3.20;2.42;;;6.10;99.90;;;;;;5051427;28;20196;-68
2022/02/27 08:22:36;;;;;;;2.90;1.98;;;6.10;99.90;;;;;;5050929;28;20266;-66
2022/02/27 08:25:06;;;;;;;4.30;2.78;;;6.10;99.90;;;;;;5051684;28;20254;-67
2022/02/27 08:27:36;;;;;;;4.10;2.05;;;6.10;99.90;;;;;;5050102;28;20646;-66
2022/02/27 08:30:05;;;;;;;3.60;2.70;;;6.20;99.90;;;;;;5053904;28;20192;-68
2022/02/27 08:32:33;;;;;;;3.85;3.17;;;6.20;99.90;;;;;;5051261;28;20266;-68
2022/02/27 08:35:03;;;;;;;3.20;2.90;;;6.20;99.90;;;;;;5056857;28;20720;-68
2022/02/27 08:37:31;;;;;;;2.80;2.40;;;6.20;99.90;;;;;;5050562;28;20216;-67
2022/02/27 08:39:59;;;;;;;4.20;2.30;;;6.20;99.90;;;;;;5051486;28;20189;-67
2022/02/27 08:42:30;;;;;;;3.50;2.28;;;6.20;99.90;;;;;;5050490;28;20281;-68
2022/02/27 08:44:58;;;;;;;2.78;2.20;;;6.30;99.90;;;;;;5044615;28;20620;-67
2022/02/27 08:47:26;;;;;;;4.05;3.00;;;6.20;99.90;;;;;;5050559;28;20220;-68
2022/02/27 08:49:54;;;;;;;2.85;2.25;;;6.30;99.90;;;;;;5050752;28;20230;-68
2022/02/27 08:52:23;;;;;;;3.85;2.28;;;6.30;99.90;;;;;;5050404;28;20615;-67
2022/02/27 08:54:51;;;;;;;4.95;2.30;;;6.30;99.90;;;;;;5050993;28;20646;-68
2022/02/27 08:57:20;;;;;;;2.03;1.83;;;6.30;99.90;;;;;;5050666;28;20220;-68
2022/02/27 08:59:48;;;;;;;4.53;2.42;;;6.30;99.90;;;;;;5050590;28;20231;-66
2022/02/27 09:02:16;;;;;;;4.25;2.45;;;6.30;99.90;;;;;;5048304;28;20224;-68
2022/02/27 09:04:46;;;;;;;3.15;2.10;;;6.30;99.90;;;;;;5050288;28;20204;-68
2022/02/27 09:07:14;;;;;;;4.60;2.67;;;6.30;99.90;;;;;;5050533;28;20629;-68
2022/02/27 09:09:43;;;;;;;3.42;2.45;;;6.30;99.90;;;;;;5050726;28;20583;-67
2022/02/27 09:12:12;;;;;;;3.97;2.50;;;6.40;99.90;;;;;;5050375;28;20231;-67
2022/02/27 09:14:42;;;;;;;4.47;2.70;;;6.40;99.90;;;;;;5050330;28;20249;-68
2022/02/27 09:17:10;;;;;;;3.70;2.30;;;6.40;99.90;;;;;;5049905;28;20227;-68
2022/02/27 09:19:40;;;;;;;4.00;2.72;;;6.40;99.90;;;;;;5049972;28;20232;-69
2022/02/27 09:22:08;;;;;;;5.70;2.65;;;6.40;99.90;;;;;;5050292;28;20232;-67
2022/02/27 09:24:36;;;;;;;3.08;2.80;;;6.40;99.90;;;;;;5049913;28;20195;-68
2022/02/27 09:27:06;;;;;;;3.35;2.80;;;6.40;99.90;;;;;;5050488;28;20220;-68
2022/02/27 09:29:35;;;;;;;3.28;2.90;;;6.40;99.90;;;;;;5050644;28;20206;-67
2022/02/27 09:32:04;;;;;;;4.57;2.60;;;6.40;99.90;;;;;;5035782;28;20220;-68
2022/02/27 09:34:32;;;;;;;4.47;2.80;;;6.40;99.90;;;;;;5055895;28;20672;-66
2022/02/27 09:37:00;;;;;;;3.80;2.50;;;6.40;99.90;;;;;;5049489;28;20220;-68
2022/02/27 09:39:30;;;;;;;4.28;2.10;;;6.40;99.90;;;;;;5050594;28;20220;-68
2022/02/27 09:41:59;;;;;;;2.50;2.30;;;6.40;99.90;;;;;;5049928;28;20259;-69
2022/02/27 09:44:36;;;;;;;2.85;2.60;;;6.40;99.90;;;;;;5050172;28;20192;-66
2022/02/27 09:47:04;;;;;;;2.50;2.30;;;6.40;99.90;;;;;;5050258;28;20235;-68
2022/02/27 09:49:34;;;;;;;4.40;3.10;;;6.50;99.90;;;;;;5050005;28;20300;-67
2022/02/27 09:52:03;;;;;;;2.50;2.30;;;6.40;99.90;;;;;;5049941;28;20588;-69
2022/02/27 09:54:33;;;;;;;4.32;2.60;;;6.40;99.90;;;;;;5049837;28;20189;-67
2022/02/27 09:57:02;;;;;;;4.40;2.72;;;6.40;99.90;;;;;;5049044;28;20244;-67
2022/02/27 09:59:31;;;;;;;3.00;2.70;;;6.50;99.90;;;;;;5048835;28;20266;-68
2022/02/27 10:02:01;;;;;;;5.70;2.55;;;6.50;99.90;;;;;;5049412;28;20216;-67
2022/02/27 10:04:34;;;;;;;3.08;2.83;;;6.50;99.90;;;;;;5049175;28;20200;-67
2022/02/27 10:07:08;;;;;;;3.50;2.85;;;6.50;99.90;;;;;;5035115;28;20213;-68
2022/02/27 10:09:37;;;;;;;3.10;2.40;;;6.50;99.90;;;;;;5050197;28;20642;-68
2022/02/27 10:12:17;;;;;;;4.00;2.50;;;6.50;99.90;;;;;;5049359;28;20224;-68
2022/02/27 10:15:02;;;;;;;3.30;2.75;;;6.50;99.90;;;;;;5049315;28;20241;-67
2022/02/27 10:17:32;;;;;;;2.60;2.40;;;6.50;99.90;;;;;;5046022;28;20759;-66
2022/02/27 10:20:06;;;;;;;2.90;2.70;;;6.50;99.90;;;;;;5047770;28;20216;-67
2022/02/27 10:22:36;;;;;;;3.22;2.15;;;6.50;99.90;;;;;;5061130;28;20234;-67
2022/02/27 10:25:07;;;;;;;2.95;2.22;;;6.50;99.90;;;;;;5048105;28;20346;-66
2022/02/27 10:27:47;;;;;;;3.95;2.53;;;6.50;99.90;;;;;;5051288;28;20231;-68
2022/02/27 10:30:22;;;;;;;3.20;2.88;;;6.50;99.90;;;;;;5051747;28;20193;-66
2022/02/27 10:32:54;;;;;;;2.80;2.60;;;6.50;99.90;;;;;;5053180;28;20220;-67
2022/02/27 10:35:40;;;;;;;3.13;2.55;;;6.50;99.90;;;;;;5056739;28;20266;-69
2022/02/27 10:38:10;;;;;;;3.10;2.25;;;6.50;99.90;;;;;;5044113;28;20262;-67
2022/02/27 10:40:40;;;;;;;3.80;2.65;;;6.50;99.90;;;;;;5052694;28;20216;-66
2022/02/27 10:43:10;;;;;;;2.55;2.15;;;6.50;99.90;;;;;;5053046;28;20193;-67
2022/02/27 10:45:41;;;;;;;2.50;2.13;;;6.50;99.90;;;;;;5050975;28;20184;-67
2022/02/27 10:48:12;;;;;;;3.42;2.85;;;6.50;99.90;;;;;;5051323;28;20289;-68
2022/02/27 10:50:42;;;;;;;5.07;2.47;;;6.50;99.90;;;;;;5043021;28;20702;-68
2022/02/27 10:53:13;;;;;;;2.50;2.30;;;6.60;99.90;;;;;;5050516;28;20200;-67
2022/02/27 10:55:42;;;;;;;6.93;2.85;;;6.60;99.90;;;;;;5048570;28;20223;-69
2022/02/27 10:58:11;;;;;;;3.78;2.95;;;6.60;99.90;;;;;;5053095;28;20192;-68
2022/02/27 11:00:41;;;;;;;4.50;2.30;;;6.60;99.90;;;;;;5049210;28;20232;-68
2022/02/27 11:03:12;;;;;;;4.05;2.08;;;6.60;99.90;;;;;;5046605;28;20219;-69
2022/02/27 11:05:43;;;;;;;2.50;2.30;;;6.60;99.90;;;;;;5046667;28;20224;-66
2022/02/27 11:08:13;;;;;;;2.88;2.53;;;6.60;99.90;;;;;;5048386;28;20189;-67
2022/02/27 11:10:43;;;;;;;2.95;2.40;;;6.60;99.90;;;;;;5049190;28;20705;-67
2022/02/27 11:13:15;;;;;;;2.78;2.33;;;6.60;99.90;;;;;;5047784;28;21252;-67
2022/02/27 11:15:44;;;;;;;2.55;2.35;;;6.50;99.90;;;;;;5050882;28;20220;-67
2022/02/27 11:18:14;;;;;;;4.10;2.22;;;6.50;99.90;;;;;;5051217;28;20231;-68
2022/02/27 11:20:42;;;;;;;4.63;4.15;;;6.50;99.90;;;;;;5048091;28;20243;-68
2022/02/27 11:23:11;;;;;;;3.08;2.00;;;6.50;99.90;;;;;;5051571;28;20843;-66
2022/02/27 11:25:40;;;;;;;3.13;2.00;;;6.50;99.90;;;;;;5051497;28;20235;-68
2022/02/27 11:28:11;;;;;;;3.53;2.33;;;6.50;99.90;;;;;;5052026;28;20188;-67
2022/02/27 11:30:41;;;;;;;3.35;2.30;;;6.50;99.90;;;;;;5050187;28;20236;-67
2022/02/27 11:33:18;;;;;;;3.45;2.13;;;6.50;99.90;;;;;;5052514;28;21120;-66
2022/02/27 11:35:49;;;;;;;2.65;2.10;;;6.50;99.90;;;;;;5051766;28;20212;-68
2022/02/27 11:38:19;;;;;;;2.53;2.17;;;6.50;99.90;;;;;;5052834;28;20246;-69
2022/02/27 11:40:52;;;;;;;2.70;2.35;;;6.50;99.90;;;;;;5037106;28;20220;-67
2022/02/27 11:43:38;;;;;;;5.32;2.55;;;6.50;99.90;;;;;;5051673;28;20195;-68
2022/02/27 11:46:08;;;;;;;4.55;2.10;;;6.50;99.90;;;;;;5039366;28;20231;-68
2022/02/27 11:49:02;;;;;;;4.10;2.80;;;6.50;99.90;;;;;;5028899;28;20189;-66
2022/02/27 11:51:52;;;;;;;2.70;2.47;;;6.60;99.90;;;;;;5037187;28;20767;-69
2022/02/27 11:54:22;;;;;;;2.50;2.30;;;6.80;99.90;;;;;;5051420;28;20227;-66
2022/02/27 11:57:09;;;;;;;6.75;2.90;;;6.90;99.90;;;;;;5037639;28;20778;-68
2022/02/27 11:59:49;;;;;;;5.82;2.40;;;7.00;99.90;;;;;;5030361;28;20236;-67
2022/02/27 12:02:25;;;;;;;2.88;2.53;;;7.10;99.90;;;;;;5020047;28;20236;-67
2022/02/27 12:04:57;;;;;;;4.32;2.25;;;7.20;99.90;;;;;;5028880;28;20212;-68
2022/02/27 12:07:26;;;;;;;4.22;2.80;;;7.20;99.90;;;;;;5031635;28;20312;-67
2022/02/27 12:10:03;;;;;;;6.45;2.95;;;7.30;99.70;;;;;;5032105;28;20204;-66
2022/02/27 12:12:53;;;;;;;5.80;2.67;;;7.30;98.70;;;;;;5021810;28;20587;-67
2022/02/27 12:15:28;;;;;;;6.45;3.15;;;7.30;98.20;;;;;;5019282;28;20851;-66
2022/02/27 12:17:59;;;;;;;3.80;3.00;;;7.30;98.20;;;;;;5047122;28;20681;-68
2022/02/27 12:20:51;;;;;;;6.38;2.95;;;7.30;97.60;;;;;;5047283;28;20620;-68
2022/02/27 12:23:47;;;;;;;5.22;2.97;;;7.30;97.70;;;;;;5047747;28;20628;-67
2022/02/27 12:26:47;;;;;;;3.42;2.42;;;7.30;97.70;;;;;;5050460;28;20586;-68
2022/02/27 12:29:36;;;;;;;4.85;2.60;;;7.20;98.90;;;;;;5042431;28;20743;-68
2022/02/27 12:32:22;;;;;;;2.75;2.53;;;7.10;99.90;;;;;;5049278;28;20227;-68
2022/02/27 12:34:53;;;;;;;4.20;3.38;;;7.00;99.90;;;;;;5048465;28;20249;-67
2022/02/27 12:37:24;;;;;;;7.25;2.60;;;6.90;99.90;;;;;;5050957;28;20220;-67
2022/02/27 12:39:53;;;;;;;4.18;2.83;;;6.90;99.90;;;;;;5045430;28;20239;-68
2022/02/27 12:42:23;;;;;;;6.60;2.30;;;6.80;99.90;;;;;;5050793;28;20587;-68
2022/02/27 12:44:53;;;;;;;2.92;2.70;;;6.80;99.90;;;;;;5050843;28;20573;-68
2022/02/27 12:47:25;;;;;;;3.05;2.35;;;6.80;99.90;;;;;;5050943;28;20243;-68
2022/02/27 12:52:43;;;;;;;7.65;3.15;;;6.70;99.90;;;;;;5050031;28;20219;-67
2022/02/27 12:55:14;;;;;;;4.03;2.60;;;6.70;99.90;;;;;;5050710;28;20193;-68
2022/02/27 12:57:44;;;;;;;3.03;2.20;;;6.70;99.90;;;;;;5050402;28;20216;-69
2022/02/27 13:00:14;;;;;;;8.05;3.72;;;6.70;99.90;;;;;;5050565;28;20232;-69
2022/02/27 13:02:42;;;;;;;5.32;2.97;;;6.70;99.90;;;;;;5048057;28;20694;-67
2022/02/27 13:05:13;;;;;;;3.28;2.72;;;6.70;99.90;;;;;;5048328;28;20215;-67
2022/02/27 13:07:43;;;;;;;6.63;3.10;;;6.70;99.90;;;;;;5050305;28;20220;-67
2022/02/27 13:10:15;;;;;;;7.18;2.65;;;6.70;99.90;;;;;;5050821;28;20184;-68
2022/02/27 13:12:44;;;;;;;2.42;2.20;;;6.70;99.90;;;;;;5049803;28;20685;-68
2022/02/27 13:15:12;;;;;;;2.97;2.67;;;6.70;99.90;;;;;;5050487;28;20242;-67